KCEW

Bob Sikes Airport

Crestview, Florida, USA
METAR KCEW 250104Z AUTO 24004KT 10SM -TSRA FEW110 22/21 A3006 RMK AO2 LTG DSNT SE-W TSB0058 P0001 T02170206
Observed Flight Rules
May-25 @ 01:04 UTC (11 minutes ago) Visual Flight Rules
Wind Visibility Clouds Conditions
240° at 4 knots 10 miles
  • Few at 11,000' AGL
  • Light Thunderstorm
  • Light Rain
Temperatures Readings Precipitation
Current 22°C / 72°F
Dewpoint 21°C / 70°F
Humidity 94%
Altimeter 30.06" Hg
Pressure 1018 hPa
Elevation 55
Current Rain 0.01
METAR KCEW 250104Z AUTO 24004KT 10SM -TSRA FEW110 22/21 A3006 RMK AO2 LTG DSNT SE-W TSB0058 P0001 T02170206
Observed Flight Rules
May-25 @ 01:04 UTC
(11 minutes ago)
VFR
Wind Visibility
240° at 4 knots 10 miles
Clouds
  • Few at 11,000' AGL
Conditions
  • Light Thunderstorm
  • Light Rain
Temperature Dewpoint
22°C / 72°F 21°C / 70°F
Humidity Altimeter Pressure
94% 30.06" Hg 1018 hPa
Current Rain
0.01